Zion National Park, UT

8:44 AM MST on February 09, 2016 (GMT -0700)
Virgin, Utah | | Change Station
CLOSE
Current Station
Personal Weather Station
Location: Virgin, UT
Elevation: 3563 ft
Nearby Weather Stations

Elev 3563 ft 37.20 °N, 113.16 °W | Updated 14 minutes ago

Clear
Clear
36.7 °F
Feels Like 32 °F
N
5.8
Wind Variable Wind from ESE

Today
High -- | Low -- °F
--% Chance of Precip.
Yesterday
High -- | Low -- °F
Precip. -- in
Pressure 30.49 in
Visibility 10.0 miles
Clouds Clear
Windchill 32 °F
Dew Point 28 °F
Humidity 70%
Rainfall 0.00 in
Snow Depth Not available.
7:27 AM 6:05 PM
New Moon, 1% visible
METAR KAZC 091535Z AUTO 11003KT 10SM CLR M01/M04 A3049 RMK AO2 T10151036
Pressure 30.49 in
Visibility 10.0 miles
Clouds Clear
Windchill 32 °F
Dew Point 28 °F
Humidity 70%
Rainfall 0.00 in
Snow Depth Not available.
7:27 AM 6:05 PM
New Moon, 1% visible
METAR KAZC 091535Z AUTO 11003KT 10SM CLR M01/M04 A3049 RMK AO2 T10151036

10-Day Weather Forecast

Almanac

Astronomy

Feb. 09, 2016 Rise Set
Actual Time
Civil Twilight
Nautical Twilight
Astronomical Twilight
Moon
Length of Visible Light
Length of Day
Tomorrow will be .
, % of the Moon is Illuminated

Today's Extremes

State Highs State Lows

Community

WunderPhotos

Upload Photos

1,891,628 photos uploaded!

WunderBlog® & News

Nearby

Air Quality

  Air Quality AQ Index Pollutant
Not available.

Snow Depth

Station Depth Elevation

Earthquake Activity

City Distance Mag. Time & Date
Minimum magnitude displayed is 2.5.

Coastal Water Temperatures

Place Temperature

Stations

Nearby Weather Stations

Station Location Temp. Windchill Dew Point Humidity Wind Precip. Elev Updated Type
                   

Watches & Warnings

There are currently no watches in effect.